Time;durP1;ratioP1;P1;durP2;ratioP2;P2;SDS_P1;SDS_P2;PMS_P1;PMS_P2;Temp;Humidity;BMP_temperature;BMP_pressure;BME280_temperature;BME280_humidity;BME280_pressure;Samples;Min_cycle;Max_cycle;Signal;HPM_P1;HPM_P2
2022/10/03 00:00:14;;;;;;;;;;;18.20;74.70;;;;;;5168890;23;19903;-53
2022/10/03 00:02:54;;;;;;;;;;;18.20;74.50;;;;;;5169187;23;19907;-49
2022/10/03 00:05:19;;;;;;;;;;;18.30;73.60;;;;;;5168976;23;19907;-45
2022/10/03 00:08:08;;;;;;;;;;;18.30;73.20;;;;;;5160519;23;20328;-49
2022/10/03 00:10:35;;;;;;;;;;;18.30;72.50;;;;;;5132797;23;19998;-45
2022/10/03 00:12:57;;;;;;;;;;;18.30;71.80;;;;;;5168209;23;19908;-49
2022/10/03 00:15:20;;;;;;;;;;;18.20;71.10;;;;;;5169304;23;19907;-44
2022/10/03 00:17:42;;;;;;;;;;;18.20;70.80;;;;;;5169032;23;19986;-47
2022/10/03 00:20:12;;;;;;;;;;;18.20;71.00;;;;;;5168444;23;19977;-48
2022/10/03 00:22:34;;;;;;;;;;;18.20;71.20;;;;;;5138632;23;20407;-49
2022/10/03 00:24:56;;;;;;;;;;;18.20;71.70;;;;;;5168941;23;20358;-54
2022/10/03 00:27:27;;;;;;;;;;;18.30;71.00;;;;;;5168811;23;20328;-53
2022/10/03 00:29:52;;;;;;;;;;;18.30;69.60;;;;;;5158936;23;19922;-51
2022/10/03 00:32:19;;;;;;;;;;;18.20;67.80;;;;;;5167358;23;19907;-50
2022/10/03 00:34:50;;;;;;;;;;;18.20;66.70;;;;;;5168769;23;19911;-49
2022/10/03 00:37:21;;;;;;;;;;;18.20;66.50;;;;;;5169017;23;19985;-49
2022/10/03 00:40:01;;;;;;;;;;;18.10;67.30;;;;;;5169609;23;19903;-56
2022/10/03 00:42:41;;;;;;;;;;;18.20;68.10;;;;;;5169870;23;19903;-51
2022/10/03 00:45:31;;;;;;;;;;;18.20;68.40;;;;;;5168573;23;19907;-57
2022/10/03 00:48:08;;;;;;;;;;;18.30;68.10;;;;;;5161967;23;19904;-48
2022/10/03 00:50:37;;;;;;;;;;;18.30;67.70;;;;;;5170877;23;19999;-48
2022/10/03 00:53:06;;;;;;;;;;;18.30;67.50;;;;;;5169459;23;19908;-50
2022/10/03 00:55:37;;;;;;;;;;;18.30;66.40;;;;;;5169039;23;20234;-43
2022/10/03 00:58:10;;;;;;;;;;;18.30;66.50;;;;;;5169838;23;20336;-43
2022/10/03 01:00:33;;;;;;;;;;;18.30;66.30;;;;;;5169952;23;19903;-44
2022/10/03 01:03:07;;;;;;;;;;;18.30;65.50;;;;;;5169189;23;19903;-43
2022/10/03 01:05:29;;;;;;;;;;;18.20;65.10;;;;;;5167492;23;19907;-44
2022/10/03 01:08:11;;;;;;;;;;;18.20;64.90;;;;;;5160071;23;19957;-43
2022/10/03 01:10:52;;;;;;;;;;;18.20;64.80;;;;;;5167358;23;19912;-44
2022/10/03 01:13:32;;;;;;;;;;;18.20;64.60;;;;;;5167847;23;19908;-43
2022/10/03 01:16:00;;;;;;;;;;;18.20;64.60;;;;;;5166880;23;19908;-43
2022/10/03 01:18:40;;;;;;;;;;;18.20;64.40;;;;;;5167321;23;19903;-43
2022/10/03 01:21:22;;;;;;;;;;;18.20;64.30;;;;;;5167274;23;19961;-43
2022/10/03 01:23:50;;;;;;;;;;;18.20;64.30;;;;;;5158300;23;20209;-43
2022/10/03 01:26:14;;;;;;;;;;;18.20;64.20;;;;;;5159709;23;19904;-43
2022/10/03 01:31:23;;;;;;;;;;;18.20;64.00;;;;;;5173516;23;19911;-43
2022/10/03 01:33:52;;;;;;;;;;;18.20;64.10;;;;;;5174525;23;20388;-44
2022/10/03 01:36:34;;;;;;;;;;;18.20;64.00;;;;;;5185719;23;19906;-60
2022/10/03 01:39:15;;;;;;;;;;;18.20;63.90;;;;;;5178531;23;19982;-50
2022/10/03 01:41:46;;;;;;;;;;;18.20;63.90;;;;;;5172708;23;19969;-43
2022/10/03 01:44:11;;;;;;;;;;;18.20;63.90;;;;;;5171197;23;19908;-46
2022/10/03 01:46:39;;;;;;;;;;;18.20;63.80;;;;;;5169240;23;20397;-46
2022/10/03 01:49:01;;;;;;;;;;;18.30;63.90;;;;;;5169393;23;20237;-46
2022/10/03 01:51:33;;;;;;;;;;;18.30;64.00;;;;;;5159585;23;19911;-49
2022/10/03 01:54:15;;;;;;;;;;;18.30;63.80;;;;;;5167681;23;20339;-44
2022/10/03 01:56:52;;;;;;;;;;;18.30;63.80;;;;;;5169422;23;19903;-48
2022/10/03 01:59:19;;;;;;;;;;;18.30;63.70;;;;;;5170280;23;19996;-46
2022/10/03 02:01:50;;;;;;;;;;;18.30;63.70;;;;;;5169412;23;19911;-46
2022/10/03 02:04:16;;;;;;;;;;;18.30;63.90;;;;;;5169405;22;19909;-46
2022/10/03 02:06:52;;;;;;;;;;;18.40;63.70;;;;;;5168785;23;20259;-45
2022/10/03 02:09:24;;;;;;;;;;;18.40;63.80;;;;;;5161015;23;19997;-46
2022/10/03 02:11:49;;;;;;;;;;;18.40;63.60;;;;;;5168709;23;19908;-47
2022/10/03 02:14:11;;;;;;;;;;;18.40;63.70;;;;;;5169068;23;20302;-44
2022/10/03 02:16:33;;;;;;;;;;;18.40;63.70;;;;;;5169843;23;19955;-49
2022/10/03 02:19:04;;;;;;;;;;;18.50;63.60;;;;;;5169636;23;20045;-46
2022/10/03 02:21:29;;;;;;;;;;;18.50;63.60;;;;;;5168509;23;19903;-46
2022/10/03 02:24:04;;;;;;;;;;;18.50;63.50;;;;;;5169041;23;19911;-46
2022/10/03 02:26:44;;;;;;;;;;;18.50;63.50;;;;;;5170510;23;19926;-49
2022/10/03 02:29:18;;;;;;;;;;;18.50;63.50;;;;;;5168991;23;19957;-47
2022/10/03 02:31:40;;;;;;;;;;;18.50;63.50;;;;;;5168114;23;19915;-45
2022/10/03 02:34:05;;;;;;;;;;;18.50;63.50;;;;;;5168679;23;19907;-46
2022/10/03 02:36:45;;;;;;;;;;;18.60;63.50;;;;;;5168698;23;19903;-46
2022/10/03 02:39:25;;;;;;;;;;;18.60;63.40;;;;;;5168802;23;19914;-46
2022/10/03 02:41:48;;;;;;;;;;;18.60;63.50;;;;;;5167793;23;19961;-46
2022/10/03 02:44:12;;;;;;;;;;;18.60;63.50;;;;;;5168765;23;20013;-48
2022/10/03 02:46:46;;;;;;;;;;;18.60;63.50;;;;;;5167358;23;19907;-44
2022/10/03 02:49:11;;;;;;;;;;;18.70;63.40;;;;;;5169727;23;20244;-46
2022/10/03 02:51:43;;;;;;;;;;;18.70;63.40;;;;;;5167893;23;19982;-46
2022/10/03 02:54:05;;;;;;;;;;;18.70;63.40;;;;;;5160492;23;19954;-45
2022/10/03 02:56:30;;;;;;;;;;;18.60;64.00;;;;;;5168326;23;19907;-49
2022/10/03 02:58:55;;;;;;;;;;;18.70;63.40;;;;;;5169543;23;20304;-47
2022/10/03 03:01:26;;;;;;;;;;;18.70;63.40;;;;;;5159951;23;20231;-43
2022/10/03 03:03:57;;;;;;;;;;;18.70;63.40;;;;;;5169228;22;19919;-44
2022/10/03 03:06:29;;;;;;;;;;;18.70;63.40;;;;;;5168652;23;19907;-44
2022/10/03 03:09:01;;;;;;;;;;;18.70;63.40;;;;;;5167841;23;19958;-46
2022/10/03 03:11:36;;;;;;;;;;;18.70;63.50;;;;;;5160541;23;20390;-46
2022/10/03 03:14:06;;;;;;;;;;;18.70;63.50;;;;;;5160322;23;19911;-44
2022/10/03 03:16:32;;;;;;;;;;;18.70;63.40;;;;;;5160978;23;19910;-46
2022/10/03 03:19:10;;;;;;;;;;;18.80;63.50;;;;;;5168342;23;20000;-46
2022/10/03 03:21:49;;;;;;;;;;;18.80;63.40;;;;;;5167941;23;20371;-45
2022/10/03 03:24:26;;;;;;;;;;;18.80;63.30;;;;;;5169352;23;19911;-44
2022/10/03 03:26:54;;;;;;;;;;;18.90;63.10;;;;;;5169051;23;20173;-43
2022/10/03 03:29:23;;;;;;;;;;;18.90;63.10;;;;;;5169042;23;19911;-45
2022/10/03 03:31:47;;;;;;;;;;;18.90;63.00;;;;;;5168827;23;19903;-46
2022/10/03 03:34:09;;;;;;;;;;;18.90;62.90;;;;;;5169195;23;19911;-43
2022/10/03 03:36:50;;;;;;;;;;;19.00;62.90;;;;;;5168082;23;19907;-47
2022/10/03 03:39:30;;;;;;;;;;;19.00;62.90;;;;;;5160211;23;19907;-44
2022/10/03 03:42:02;;;;;;;;;;;19.10;62.80;;;;;;5169186;23;19995;-45
2022/10/03 03:44:24;;;;;;;;;;;19.10;62.60;;;;;;5168805;23;19950;-46
2022/10/03 03:46:52;;;;;;;;;;;19.20;62.60;;;;;;5168406;23;19904;-48
2022/10/03 03:49:14;;;;;;;;;;;19.20;62.40;;;;;;5168852;23;19946;-47
2022/10/03 03:51:48;;;;;;;;;;;19.30;62.30;;;;;;5168400;23;19903;-46
2022/10/03 03:54:18;;;;;;;;;;;19.40;62.20;;;;;;5168371;23;19919;-47
2022/10/03 03:57:02;;;;;;;;;;;19.40;61.90;;;;;;5168026;23;20193;-45
2022/10/03 03:59:39;;;;;;;;;;;19.50;61.80;;;;;;5167984;23;19990;-44
2022/10/03 04:02:19;;;;;;;;;;;19.60;61.70;;;;;;5169073;23;20395;-44
2022/10/03 04:04:50;;;;;;;;;;;19.60;61.60;;;;;;5167709;22;19985;-46
2022/10/03 04:07:20;;;;;;;;;;;19.70;61.60;;;;;;5167496;23;19907;-47
2022/10/03 04:09:42;;;;;;;;;;;19.70;61.40;;;;;;5168550;23;20247;-46
2022/10/03 04:12:24;;;;;;;;;;;19.70;61.30;;;;;;5169269;23;20045;-43
2022/10/03 04:14:55;;;;;;;;;;;19.80;61.30;;;;;;5161832;23;19903;-48
2022/10/03 04:20:37;;;;;;;;;;;19.90;61.20;;;;;;5121888;23;19930;-48
2022/10/03 04:23:17;;;;;;;;;;;19.90;61.10;;;;;;5134163;23;20349;-47
2022/10/03 04:25:57;;;;;;;;;;;19.90;61.00;;;;;;5169628;23;19907;-50
2022/10/03 04:28:32;;;;;;;;;;;19.90;61.00;;;;;;5170426;23;19912;-43
2022/10/03 04:31:15;;;;;;;;;;;20.00;60.90;;;;;;5171229;23;19979;-49
2022/10/03 04:33:48;;;;;;;;;;;20.00;60.90;;;;;;5161480;23;19978;-45
2022/10/03 04:36:28;;;;;;;;;;;20.00;60.90;;;;;;5161459;23;19978;-45
2022/10/03 04:38:50;;;;;;;;;;;20.10;60.70;;;;;;5163542;23;19914;-43
2022/10/03 04:41:26;;;;;;;;;;;20.20;60.60;;;;;;5169706;23;20251;-45
2022/10/03 04:43:54;;;;;;;;;;;20.30;60.50;;;;;;5163971;23;20251;-45
2022/10/03 04:46:37;;;;;;;;;;;20.40;60.20;;;;;;5159494;23;19911;-47
2022/10/03 04:49:06;;;;;;;;;;;20.40;60.10;;;;;;5162075;23;19966;-44
2022/10/03 04:51:42;;;;;;;;;;;20.50;60.00;;;;;;5160850;23;19903;-49
2022/10/03 04:54:24;;;;;;;;;;;20.50;60.00;;;;;;5170013;23;19918;-50
2022/10/03 04:56:52;;;;;;;;;;;20.60;59.70;;;;;;5159654;23;19903;-47
2022/10/03 04:59:23;;;;;;;;;;;20.60;59.60;;;;;;5168174;23;20057;-43
2022/10/03 05:01:45;;;;;;;;;;;20.70;59.60;;;;;;5170133;23;19903;-45
2022/10/03 05:04:13;;;;;;;;;;;20.70;59.70;;;;;;5169798;22;19914;-44
2022/10/03 05:06:35;;;;;;;;;;;20.70;59.80;;;;;;5169451;23;19910;-47
2022/10/03 05:09:03;;;;;;;;;;;20.70;59.70;;;;;;5160654;23;20196;-44
2022/10/03 05:11:38;;;;;;;;;;;20.70;59.80;;;;;;5170106;23;20340;-48
2022/10/03 05:14:03;;;;;;;;;;;20.70;59.60;;;;;;5169384;23;19945;-44
2022/10/03 05:16:43;;;;;;;;;;;20.70;59.60;;;;;;5168667;23;19982;-44
2022/10/03 05:19:27;;;;;;;;;;;20.70;59.60;;;;;;5169250;23;19949;-45
2022/10/03 05:22:02;;;;;;;;;;;20.70;59.80;;;;;;5160756;23;19942;-45
2022/10/03 05:24:27;;;;;;;;;;;20.80;59.50;;;;;;5169506;23;19982;-44
2022/10/03 05:27:02;;;;;;;;;;;20.90;59.60;;;;;;5170289;23;19983;-46
2022/10/03 05:29:24;;;;;;;;;;;21.00;59.40;;;;;;5160920;23;20483;-46
2022/10/03 05:31:56;;;;;;;;;;;21.10;59.10;;;;;;5169144;23;19907;-43
2022/10/03 05:34:21;;;;;;;;;;;21.20;59.20;;;;;;5161428;23;19903;-43
2022/10/03 05:36:57;;;;;;;;;;;21.30;58.90;;;;;;5168639;23;20297;-44
2022/10/03 05:39:22;;;;;;;;;;;21.40;58.40;;;;;;5137428;23;19914;-44
2022/10/03 05:41:52;;;;;;;;;;;21.40;58.50;;;;;;5169723;23;20327;-43
2022/10/03 05:44:16;;;;;;;;;;;21.40;58.30;;;;;;5170172;23;19983;-44
2022/10/03 05:46:47;;;;;;;;;;;21.50;58.10;;;;;;5169057;23;19907;-44
2022/10/03 05:49:15;;;;;;;;;;;21.40;58.00;;;;;;5169514;23;19918;-45
2022/10/03 05:51:45;;;;;;;;;;;21.40;58.30;;;;;;5168445;23;19903;-44
2022/10/03 05:54:22;;;;;;;;;;;21.40;58.20;;;;;;5169489;23;20240;-43
2022/10/03 06:02:44;;;;;;;;;;;21.30;58.40;;;;;;5173392;23;20342;-43
2022/10/03 06:05:14;;;;;;;;;;;21.20;58.60;;;;;;5174159;23;19982;-44
2022/10/03 06:07:48;;;;;;;;;;;21.20;58.60;;;;;;5172832;23;19911;-44
2022/10/03 06:10:10;;;;;;;;;;;21.10;58.60;;;;;;5168748;23;19939;-46
2022/10/03 06:12:35;;;;;;;;;;;21.10;58.80;;;;;;5169580;23;20335;-44
2022/10/03 06:15:05;;;;;;;;;;;21.10;59.00;;;;;;5169762;23;19903;-47
2022/10/03 06:17:36;;;;;;;;;;;21.00;59.00;;;;;;5161507;23;19908;-44
2022/10/03 06:20:11;;;;;;;;;;;21.00;59.10;;;;;;5161106;23;20370;-45
2022/10/03 06:22:33;;;;;;;;;;;21.00;59.30;;;;;;5168381;23;20354;-48
2022/10/03 06:25:07;;;;;;;;;;;21.00;59.70;;;;;;5169519;23;19927;-44
2022/10/03 06:27:29;;;;;;;;;;;21.00;59.90;;;;;;5169010;23;19979;-44
2022/10/03 06:30:10;;;;;;;;;;;21.00;60.00;;;;;;5169467;23;20374;-45
2022/10/03 06:32:45;;;;;;;;;;;21.00;59.90;;;;;;5167550;23;20207;-46
2022/10/03 06:35:25;;;;;;;;;;;21.00;59.80;;;;;;5168424;23;20025;-45
2022/10/03 06:38:00;;;;;;;;;;;21.10;59.50;;;;;;5169776;23;20390;-47
2022/10/03 06:40:28;;;;;;;;;;;21.20;59.50;;;;;;5169304;23;19911;-44
2022/10/03 06:42:56;;;;;;;;;;;21.20;59.10;;;;;;5168346;23;19926;-44
2022/10/03 06:45:21;;;;;;;;;;;21.20;59.20;;;;;;5169414;23;19992;-46
2022/10/03 06:47:58;;;;;;;;;;;21.20;59.10;;;;;;5169316;23;19961;-44
2022/10/03 06:50:34;;;;;;;;;;;21.30;59.10;;;;;;5160574;23;19919;-44
2022/10/03 06:52:57;;;;;;;;;;;21.20;59.10;;;;;;5160554;23;20001;-49
2022/10/03 06:55:31;;;;;;;;;;;21.20;59.20;;;;;;5169452;23;20323;-45
2022/10/03 06:58:02;;;;;;;;;;;21.20;59.20;;;;;;5168562;23;19910;-49
2022/10/03 07:00:48;;;;;;;;;;;21.20;59.10;;;;;;5168473;23;19908;-48
2022/10/03 07:03:10;;;;;;;;;;;21.10;59.00;;;;;;5160517;22;19908;-44
2022/10/03 07:05:35;;;;;;;;;;;21.10;58.90;;;;;;5168734;23;19911;-44
2022/10/03 07:08:01;;;;;;;;;;;21.00;58.80;;;;;;5161833;23;19904;-46
2022/10/03 07:10:34;;;;;;;;;;;21.00;58.80;;;;;;5163987;23;19915;-50
2022/10/03 07:13:15;;;;;;;;;;;21.00;58.80;;;;;;5162884;23;19930;-47
2022/10/03 07:15:40;;;;;;;;;;;21.00;58.90;;;;;;5168434;23;19910;-45
2022/10/03 07:18:11;;;;;;;;;;;21.00;58.80;;;;;;5138609;23;19978;-48
2022/10/03 07:20:39;;;;;;;;;;;20.90;58.80;;;;;;5168048;23;19904;-44
2022/10/03 07:23:28;;;;;;;;;;;20.90;58.80;;;;;;5167620;23;20311;-47
2022/10/03 07:25:57;;;;;;;;;;;20.80;58.90;;;;;;5169347;23;20006;-47
2022/10/03 07:28:37;;;;;;;;;;;20.80;59.00;;;;;;5160557;23;19951;-44
2022/10/03 07:31:28;;;;;;;;;;;20.80;59.00;;;;;;5167323;23;19934;-48
2022/10/03 07:33:50;;;;;;;;;;;20.80;59.00;;;;;;5057448;23;19913;-48
2022/10/03 07:39:30;;;;;;;;;;;20.70;59.10;;;;;;5078382;23;19935;-44
2022/10/03 07:41:59;;;;;;;;;;;20.70;59.00;;;;;;5168509;23;20048;-44
2022/10/03 07:44:34;;;;;;;;;;;20.60;59.00;;;;;;5160084;23;19911;-43
2022/10/03 07:47:28;;;;;;;;;;;20.70;59.10;;;;;;5168480;23;20411;-45
2022/10/03 07:49:52;;;;;;;;;;;20.60;59.10;;;;;;5169276;23;20295;-43
2022/10/03 07:52:22;;;;;;;;;;;20.60;59.20;;;;;;5168216;23;19907;-44
2022/10/03 07:54:44;;;;;;;;;;;20.60;59.20;;;;;;5168049;23;19989;-43
2022/10/03 07:57:20;;;;;;;;;;;20.50;59.40;;;;;;5168516;23;19903;-45
2022/10/03 07:59:52;;;;;;;;;;;20.60;59.50;;;;;;5160053;23;19935;-50
2022/10/03 08:02:19;;;;;;;;;;;20.50;59.50;;;;;;5168508;23;19965;-47
2022/10/03 08:05:01;;;;;;;;;;;20.50;59.60;;;;;;5169063;22;19908;-44
2022/10/03 08:07:24;;;;;;;;;;;20.50;59.70;;;;;;5166993;23;19914;-48
2022/10/03 08:10:01;;;;;;;;;;;20.50;59.70;;;;;;5160225;23;19915;-46
2022/10/03 08:12:41;;;;;;;;;;;20.50;59.80;;;;;;5168155;23;19930;-49
2022/10/03 08:15:10;;;;;;;;;;;20.40;59.80;;;;;;5167807;23;19903;-45
2022/10/03 08:17:45;;;;;;;;;;;20.40;59.90;;;;;;5160216;23;20394;-48
2022/10/03 08:20:27;;;;;;;;;;;20.40;60.00;;;;;;5168670;23;19916;-46
2022/10/03 08:22:49;;;;;;;;;;;20.30;59.90;;;;;;5168958;23;19942;-47
2022/10/03 08:25:28;;;;;;;;;;;20.30;60.00;;;;;;5167826;23;19903;-45
2022/10/03 08:28:16;;;;;;;;;;;20.30;60.00;;;;;;5168202;23;20356;-46
2022/10/03 08:30:38;;;;;;;;;;;20.30;60.20;;;;;;5131626;23;20366;-46
2022/10/03 08:33:09;;;;;;;;;;;20.30;60.20;;;;;;5159995;23;20212;-46
2022/10/03 08:35:46;;;;;;;;;;;20.20;60.10;;;;;;5167629;23;19982;-48
2022/10/03 08:38:26;;;;;;;;;;;20.20;60.20;;;;;;5168143;23;20332;-48
2022/10/03 08:40:55;;;;;;;;;;;20.20;60.20;;;;;;5168148;23;20275;-44
2022/10/03 08:43:34;;;;;;;;;;;20.20;60.30;;;;;;5159461;23;19903;-48
2022/10/03 08:46:19;;;;;;;;;;;20.20;60.30;;;;;;5168312;23;19904;-44
2022/10/03 08:48:59;;;;;;;;;;;20.10;60.30;;;;;;5167335;23;19914;-49
2022/10/03 08:51:24;;;;;;;;;;;20.10;60.30;;;;;;5166392;23;19993;-47
2022/10/03 08:53:47;;;;;;;;;;;20.10;60.40;;;;;;5168589;23;19911;-44
2022/10/03 08:56:14;;;;;;;;;;;20.10;60.50;;;;;;5137788;23;19939;-44
2022/10/03 08:58:52;;;;;;;;;;;20.10;60.50;;;;;;5160528;23;19911;-43
2022/10/03 09:01:22;;;;;;;;;;;20.10;60.50;;;;;;5170021;23;20314;-48
2022/10/03 09:04:02;;;;;;;;;;;20.10;60.50;;;;;;5169857;22;19923;-47
2022/10/03 09:06:38;;;;;;;;;;;20.10;60.60;;;;;;5167481;23;19961;-44
2022/10/03 09:09:03;;;;;;;;;;;20.00;60.60;;;;;;5161130;23;19915;-48
2022/10/03 09:11:31;;;;;;;;;;;20.00;60.60;;;;;;5169692;23;20272;-44
2022/10/03 09:13:59;;;;;;;;;;;20.00;60.70;;;;;;5170430;23;19946;-43
2022/10/03 09:16:44;;;;;;;;;;;20.00;60.70;;;;;;5160105;23;20366;-43
2022/10/03 09:19:09;;;;;;;;;;;20.00;61.40;;;;;;5160577;23;19914;-46
2022/10/03 09:21:40;;;;;;;;;;;20.00;60.70;;;;;;5168628;23;19911;-48
2022/10/03 09:24:23;;;;;;;;;;;20.00;60.70;;;;;;5169917;23;20296;-43
2022/10/03 09:27:02;;;;;;;;;;;20.00;60.80;;;;;;5170918;23;19907;-45
2022/10/03 09:29:30;;;;;;;;;;;19.90;60.70;;;;;;5169916;23;20094;-46
2022/10/03 09:31:52;;;;;;;;;;;19.90;60.70;;;;;;5169877;23;19903;-48
2022/10/03 09:34:25;;;;;;;;;;;19.90;60.70;;;;;;5168555;23;19991;-45
2022/10/03 09:37:06;;;;;;;;;;;19.90;60.70;;;;;;5161343;23;19916;-50
2022/10/03 09:39:45;;;;;;;;;;;19.90;60.70;;;;;;5168898;23;19904;-43
2022/10/03 09:42:26;;;;;;;;;;;19.90;60.70;;;;;;5168550;23;19914;-49
2022/10/03 09:45:13;;;;;;;;;;;19.90;60.70;;;;;;5169747;23;19907;-49
2022/10/03 09:47:35;;;;;;;;;;;19.90;60.70;;;;;;5169118;23;19914;-47
2022/10/03 09:49:59;;;;;;;;;;;19.90;60.80;;;;;;5161161;23;19958;-46
2022/10/03 09:52:24;;;;;;;;;;;19.90;60.70;;;;;;5168612;23;19914;-46
2022/10/03 09:54:49;;;;;;;;;;;19.80;60.70;;;;;;5168246;23;19911;-45
2022/10/03 09:57:14;;;;;;;;;;;19.80;60.80;;;;;;5169271;23;19911;-48
2022/10/03 09:59:47;;;;;;;;;;;19.80;60.70;;;;;;5169408;23;19911;-49
2022/10/03 10:02:15;;;;;;;;;;;19.80;60.80;;;;;;5169562;23;20339;-48
2022/10/03 10:04:37;;;;;;;;;;;19.80;60.70;;;;;;5168873;22;20251;-48
2022/10/03 10:07:05;;;;;;;;;;;19.80;60.90;;;;;;5169100;23;20205;-46
2022/10/03 10:09:39;;;;;;;;;;;19.80;61.30;;;;;;5168568;23;19920;-45
2022/10/03 10:12:09;;;;;;;;;;;19.80;61.80;;;;;;5169917;23;19935;-45
2022/10/03 10:14:42;;;;;;;;;;;19.90;62.50;;;;;;5169790;23;20385;-45
2022/10/03 10:17:07;;;;;;;;;;;19.90;62.60;;;;;;5139724;23;20161;-47
2022/10/03 10:19:38;;;;;;;;;;;20.00;63.20;;;;;;5169954;23;19908;-49
2022/10/03 10:22:23;;;;;;;;;;;20.00;63.60;;;;;;5168822;23;20319;-47
2022/10/03 10:25:02;;;;;;;;;;;20.00;65.00;;;;;;5169812;23;19939;-48
2022/10/03 10:27:40;;;;;;;;;;;20.10;65.50;;;;;;5169718;23;19907;-49
2022/10/03 10:30:08;;;;;;;;;;;20.20;65.90;;;;;;5170233;23;20005;-51
2022/10/03 10:32:45;;;;;;;;;;;20.30;65.70;;;;;;5177088;23;19907;-51
2022/10/03 10:35:07;;;;;;;;;;;20.30;65.70;;;;;;5175194;23;19930;-49
2022/10/03 10:37:41;;;;;;;;;;;20.30;65.70;;;;;;5174337;23;19978;-46
2022/10/03 10:40:03;;;;;;;;;;;20.40;66.00;;;;;;5165851;23;19903;-52
2022/10/03 10:42:37;;;;;;;;;;;20.40;66.50;;;;;;5169110;23;20291;-43
2022/10/03 10:45:17;;;;;;;;;;;20.40;67.20;;;;;;5167960;23;19982;-46
2022/10/03 10:47:48;;;;;;;;;;;20.50;67.50;;;;;;5166146;23;19912;-46
2022/10/03 10:50:21;;;;;;;;;;;20.50;67.00;;;;;;5138584;23;19920;-45
2022/10/03 10:52:52;;;;;;;;;;;20.60;66.70;;;;;;5168611;23;20286;-50
2022/10/03 10:55:33;;;;;;;;;;;20.50;66.20;;;;;;5166199;23;19919;-45
2022/10/03 10:58:04;;;;;;;;;;;20.50;65.90;;;;;;5169102;23;19907;-45
2022/10/03 11:00:45;;;;;;;;;;;20.50;65.70;;;;;;5169803;23;19904;-44
2022/10/03 11:03:25;;;;;;;;;;;20.40;65.70;;;;;;5161391;22;20220;-51
2022/10/03 11:06:06;;;;;;;;;;;20.40;65.50;;;;;;5167515;23;19926;-48
2022/10/03 11:08:44;;;;;;;;;;;20.40;65.70;;;;;;5168901;23;19907;-47
2022/10/03 11:11:24;;;;;;;;;;;20.40;65.70;;;;;;5167030;23;19927;-44
2022/10/03 11:14:04;;;;;;;;;;;20.40;65.60;;;;;;5167703;23;19904;-47
2022/10/03 11:16:54;;;;;;;;;;;20.40;65.50;;;;;;5167839;23;19950;-49
2022/10/03 11:19:36;;;;;;;;;;;20.30;65.50;;;;;;5170132;23;19904;-48
2022/10/03 11:22:16;;;;;;;;;;;20.30;65.30;;;;;;5111355;23;19914;-48
2022/10/03 11:24:56;;;;;;;;;;;20.30;65.40;;;;;;5168206;23;19907;-51
2022/10/03 11:27:24;;;;;;;;;;;20.30;65.60;;;;;;5168358;23;19930;-48
2022/10/03 11:29:58;;;;;;;;;;;20.30;65.50;;;;;;5167804;23;19927;-43
2022/10/03 11:32:38;;;;;;;;;;;20.30;65.40;;;;;;5167712;23;19923;-48
2022/10/03 11:35:00;;;;;;;;;;;20.30;65.70;;;;;;5167031;23;20225;-47
2022/10/03 11:37:34;;;;;;;;;;;20.30;65.90;;;;;;5168268;23;20328;-44
2022/10/03 11:40:08;;;;;;;;;;;20.30;66.10;;;;;;5168519;23;19934;-44
2022/10/03 11:42:49;;;;;;;;;;;20.40;66.30;;;;;;5158453;23;19927;-46
2022/10/03 11:45:37;;;;;;;;;;;20.40;66.50;;;;;;5169171;23;19910;-44
2022/10/03 11:48:02;;;;;;;;;;;20.50;66.60;;;;;;5132477;23;19907;-45
2022/10/03 11:50:28;;;;;;;;;;;20.50;66.60;;;;;;5167842;23;19965;-50
2022/10/03 11:53:06;;;;;;;;;;;20.60;66.70;;;;;;5160469;23;19915;-52
2022/10/03 11:55:34;;;;;;;;;;;20.50;67.10;;;;;;5159669;23;20384;-47
2022/10/03 11:58:10;;;;;;;;;;;20.50;66.40;;;;;;5168567;23;19907;-52
2022/10/03 12:00:33;;;;;;;;;;;20.60;66.80;;;;;;5168713;23;19910;-50
2022/10/03 12:03:14;;;;;;;;;;;20.60;67.20;;;;;;5168475;23;19904;-49
2022/10/03 12:05:45;;;;;;;;;;;20.60;67.60;;;;;;5137888;23;19907;-49
2022/10/03 12:11:08;;;;;;;;;;;20.60;67.60;;;;;;5167082;23;20178;-50
2022/10/03 12:13:43;;;;;;;;;;;20.60;68.20;;;;;;5169257;23;20222;-47
2022/10/03 12:16:06;;;;;;;;;;;20.60;69.40;;;;;;5170657;23;19911;-49
2022/10/03 12:18:44;;;;;;;;;;;20.70;69.00;;;;;;5171774;23;19903;-51
2022/10/03 12:21:14;;;;;;;;;;;20.60;68.30;;;;;;5168713;23;19911;-50
2022/10/03 12:23:51;;;;;;;;;;;20.70;68.10;;;;;;5158594;23;19913;-47
2022/10/03 12:26:16;;;;;;;;;;;20.70;67.60;;;;;;5167435;23;19907;-47
2022/10/03 12:28:43;;;;;;;;;;;20.70;67.40;;;;;;5167779;23;19947;-51
2022/10/03 12:31:25;;;;;;;;;;;20.70;67.40;;;;;;5159357;23;20256;-45
2022/10/03 12:33:53;;;;;;;;;;;20.70;67.30;;;;;;5167535;23;19969;-48
2022/10/03 12:36:23;;;;;;;;;;;20.70;67.20;;;;;;5168811;23;19907;-48
2022/10/03 12:38:56;;;;;;;;;;;20.70;64.90;;;;;;5169991;23;19907;-49
2022/10/03 12:41:39;;;;;;;;;;;20.60;63.00;;;;;;5139795;23;19904;-51
2022/10/03 12:44:09;;;;;;;;;;;20.50;61.50;;;;;;5168544;23;19935;-50
2022/10/03 12:46:33;;;;;;;;;;;20.50;61.20;;;;;;5167827;23;19931;-49
2022/10/03 12:48:55;;;;;;;;;;;20.40;60.90;;;;;;5168070;23;19903;-56
2022/10/03 12:51:17;;;;;;;;;;;20.30;60.80;;;;;;5167020;23;19904;-47
2022/10/03 12:53:54;;;;;;;;;;;20.30;61.10;;;;;;5168277;23;19918;-47
2022/10/03 12:56:27;;;;;;;;;;;20.20;61.40;;;;;;5157929;23;19914;-49
2022/10/03 12:58:54;;;;;;;;;;;20.20;62.10;;;;;;5167263;23;19903;-44
2022/10/03 13:01:35;;;;;;;;;;;20.20;61.80;;;;;;5167201;23;19953;-48
2022/10/03 13:03:56;;;;;;;;;;;20.20;62.20;;;;;;5166480;22;19907;-52
2022/10/03 13:06:37;;;;;;;;;;;20.20;62.30;;;;;;5166853;23;20213;-47
2022/10/03 13:09:05;;;;;;;;;;;20.20;62.50;;;;;;5167989;23;19915;-51
2022/10/03 13:11:50;;;;;;;;;;;20.20;62.70;;;;;;5167782;23;19907;-49
2022/10/03 13:14:27;;;;;;;;;;;20.10;62.80;;;;;;5168233;23;19915;-45
2022/10/03 13:16:49;;;;;;;;;;;20.10;63.00;;;;;;5168026;23;19935;-46
2022/10/03 13:19:34;;;;;;;;;;;20.10;63.10;;;;;;5167466;23;19994;-45
2022/10/03 13:22:07;;;;;;;;;;;20.10;63.10;;;;;;5167254;23;20324;-48
2022/10/03 13:24:31;;;;;;;;;;;20.10;63.30;;;;;;5158003;23;19907;-47
2022/10/03 13:27:03;;;;;;;;;;;20.10;63.40;;;;;;5167796;23;20262;-47
2022/10/03 13:29:31;;;;;;;;;;;20.10;63.50;;;;;;5167873;23;20358;-51
2022/10/03 13:32:04;;;;;;;;;;;20.00;63.50;;;;;;5167449;23;20006;-50
2022/10/03 13:34:32;;;;;;;;;;;20.00;63.50;;;;;;5167782;23;19908;-50
2022/10/03 13:36:57;;;;;;;;;;;20.00;63.60;;;;;;5166823;23;19927;-49
2022/10/03 13:39:25;;;;;;;;;;;20.00;63.60;;;;;;5166977;23;19919;-48
2022/10/03 13:41:59;;;;;;;;;;;20.00;63.60;;;;;;5158913;23;19911;-46
2022/10/03 13:44:24;;;;;;;;;;;20.00;63.70;;;;;;5167244;23;19903;-51
2022/10/03 13:46:53;;;;;;;;;;;20.00;63.90;;;;;;5157418;23;20179;-50
2022/10/03 13:49:24;;;;;;;;;;;19.90;63.70;;;;;;5167449;23;20049;-44
2022/10/03 13:51:51;;;;;;;;;;;19.90;63.80;;;;;;5165303;23;19950;-53
2022/10/03 13:54:21;;;;;;;;;;;19.90;63.80;;;;;;5167408;23;20321;-47
2022/10/03 13:56:46;;;;;;;;;;;19.90;63.90;;;;;;5157034;23;19940;-48
2022/10/03 13:59:26;;;;;;;;;;;19.90;64.00;;;;;;5167529;23;19911;-48
2022/10/03 14:01:59;;;;;;;;;;;19.90;64.30;;;;;;5167637;23;19912;-53
2022/10/03 14:04:39;;;;;;;;;;;19.80;64.30;;;;;;5167869;22;20336;-54
2022/10/03 14:07:01;;;;;;;;;;;19.90;64.40;;;;;;5167426;23;20340;-51
2022/10/03 14:09:25;;;;;;;;;;;19.90;64.40;;;;;;5167809;23;20336;-46
2022/10/03 14:11:54;;;;;;;;;;;19.80;64.50;;;;;;5168040;23;19907;-52
2022/10/03 14:14:33;;;;;;;;;;;19.90;64.40;;;;;;5167107;23;19942;-46
2022/10/03 14:17:03;;;;;;;;;;;19.90;64.30;;;;;;5156621;23;19918;-50
2022/10/03 14:19:28;;;;;;;;;;;19.90;64.20;;;;;;5167107;23;19938;-46
2022/10/03 14:22:07;;;;;;;;;;;19.90;64.20;;;;;;5158294;23;19919;-48
2022/10/03 14:24:29;;;;;;;;;;;19.80;64.20;;;;;;5166619;23;20363;-47
2022/10/03 14:27:03;;;;;;;;;;;19.80;64.10;;;;;;5166569;23;19981;-48
2022/10/03 14:29:37;;;;;;;;;;;19.80;64.20;;;;;;5167440;23;19918;-46
2022/10/03 14:32:08;;;;;;;;;;;19.80;64.10;;;;;;5167050;23;20321;-44
2022/10/03 14:34:33;;;;;;;;;;;19.80;64.20;;;;;;5167023;23;20255;-44
2022/10/03 14:37:18;;;;;;;;;;;19.80;64.20;;;;;;5165920;23;19914;-47
2022/10/03 14:39:40;;;;;;;;;;;19.80;64.20;;;;;;5168140;23;20411;-51
2022/10/03 14:42:08;;;;;;;;;;;19.70;63.60;;;;;;5166558;23;19907;-54
2022/10/03 14:44:43;;;;;;;;;;;19.70;63.50;;;;;;5167553;23;19934;-46
2022/10/03 14:47:14;;;;;;;;;;;19.70;63.50;;;;;;5134973;23;20401;-49
2022/10/03 14:49:38;;;;;;;;;;;19.60;63.60;;;;;;5157600;23;19915;-45
2022/10/03 14:52:02;;;;;;;;;;;19.60;63.80;;;;;;5134015;23;19911;-46
2022/10/03 14:54:28;;;;;;;;;;;19.60;64.10;;;;;;5166502;23;20038;-48
2022/10/03 14:56:51;;;;;;;;;;;19.60;64.40;;;;;;5165238;23;20299;-45
2022/10/03 14:59:19;;;;;;;;;;;19.60;64.30;;;;;;5156997;23;20181;-46